sensor_id;sensor_type;location;lat;lon;timestamp;pressure;altitude;pressure_sealevel;temperature;humidity
72118;BME280;59992;47.490;8.736;2022-09-19T00:00:11;96681.65;;;12.05;62.47
72118;BME280;59992;47.490;8.736;2022-09-19T00:02:59;96682.87;;;12.06;64.17
72118;BME280;59992;47.490;8.736;2022-09-19T00:05:48;96679.23;;;11.97;63.34
72118;BME280;59992;47.490;8.736;2022-09-19T00:08:37;96686.91;;;11.99;63.88
72118;BME280;59992;47.490;8.736;2022-09-19T00:11:26;96686.52;;;11.99;62.32
72118;BME280;59992;47.490;8.736;2022-09-19T00:14:18;96684.11;;;12.00;63.52
72118;BME280;59992;47.490;8.736;2022-09-19T00:17:08;96681.73;;;11.97;62.84
72118;BME280;59992;47.490;8.736;2022-09-19T00:19:56;96682.79;;;11.97;62.65
72118;BME280;59992;47.490;8.736;2022-09-19T00:22:44;96683.05;;;12.00;63.85
72118;BME280;59992;47.490;8.736;2022-09-19T00:26:00;96680.12;;;11.95;65.93
72118;BME280;59992;47.490;8.736;2022-09-19T00:28:49;96681.88;;;11.96;65.59
72118;BME280;59992;47.490;8.736;2022-09-19T00:31:37;96676.92;;;11.95;65.66
72118;BME280;59992;47.490;8.736;2022-09-19T00:34:26;96680.44;;;11.95;66.53
72118;BME280;59992;47.490;8.736;2022-09-19T00:37:15;96679.96;;;11.94;66.28
72118;BME280;59992;47.490;8.736;2022-09-19T00:40:05;96690.27;;;11.94;67.53
72118;BME280;59992;47.490;8.736;2022-09-19T00:42:53;96684.91;;;11.90;65.49
72118;BME280;59992;47.490;8.736;2022-09-19T00:45:42;96692.73;;;11.90;67.49
72118;BME280;59992;47.490;8.736;2022-09-19T00:48:30;96691.66;;;11.88;66.43
72118;BME280;59992;47.490;8.736;2022-09-19T00:51:24;96697.98;;;11.82;67.83
72118;BME280;59992;47.490;8.736;2022-09-19T00:54:22;96704.34;;;11.75;68.16
72118;BME280;59992;47.490;8.736;2022-09-19T00:57:12;96702.16;;;11.68;67.53
72118;BME280;59992;47.490;8.736;2022-09-19T01:00:03;96704.98;;;11.70;66.43
72118;BME280;59992;47.490;8.736;2022-09-19T01:02:53;96705.45;;;11.71;66.23
72118;BME280;59992;47.490;8.736;2022-09-19T01:05:47;96704.10;;;11.72;66.27
72118;BME280;59992;47.490;8.736;2022-09-19T01:09:00;96705.73;;;11.75;66.69
72118;BME280;59992;47.490;8.736;2022-09-19T01:12:12;96709.23;;;11.77;68.92
72118;BME280;59992;47.490;8.736;2022-09-19T01:15:22;96710.77;;;11.80;67.56
72118;BME280;59992;47.490;8.736;2022-09-19T01:18:16;96713.84;;;11.83;66.23
72118;BME280;59992;47.490;8.736;2022-09-19T01:21:19;96712.49;;;11.84;66.60
72118;BME280;59992;47.490;8.736;2022-09-19T01:24:46;96710.30;;;11.86;68.12
72118;BME280;59992;47.490;8.736;2022-09-19T01:27:56;96709.83;;;11.83;67.68
72118;BME280;59992;47.490;8.736;2022-09-19T01:30:55;96704.36;;;11.77;68.70
72118;BME280;59992;47.490;8.736;2022-09-19T01:34:03;96713.39;;;11.75;71.21
72118;BME280;59992;47.490;8.736;2022-09-19T01:36:56;96711.73;;;11.70;69.29
72118;BME280;59992;47.490;8.736;2022-09-19T01:39:51;96714.62;;;11.64;71.94
72118;BME280;59992;47.490;8.736;2022-09-19T01:42:49;96710.11;;;11.56;69.73
72118;BME280;59992;47.490;8.736;2022-09-19T01:45:39;96705.09;;;11.55;70.65
72118;BME280;59992;47.490;8.736;2022-09-19T01:48:34;96712.94;;;11.58;69.75
72118;BME280;59992;47.490;8.736;2022-09-19T01:51:31;96720.38;;;11.58;69.42
72118;BME280;59992;47.490;8.736;2022-09-19T01:54:32;96718.56;;;11.60;70.00
72118;BME280;59992;47.490;8.736;2022-09-19T01:57:30;96720.05;;;11.56;69.72
72118;BME280;59992;47.490;8.736;2022-09-19T02:00:23;96717.30;;;11.55;68.44
72118;BME280;59992;47.490;8.736;2022-09-19T02:03:19;96714.32;;;11.53;69.36
72118;BME280;59992;47.490;8.736;2022-09-19T02:06:17;96706.15;;;11.49;68.58
72118;BME280;59992;47.490;8.736;2022-09-19T02:09:16;96714.31;;;11.51;69.43
72118;BME280;59992;47.490;8.736;2022-09-19T02:12:09;96719.91;;;11.51;69.45
72118;BME280;59992;47.490;8.736;2022-09-19T02:15:01;96725.34;;;11.48;69.58
72118;BME280;59992;47.490;8.736;2022-09-19T02:17:54;96727.52;;;11.46;69.10
72118;BME280;59992;47.490;8.736;2022-09-19T02:20:44;96724.08;;;11.44;70.23
72118;BME280;59992;47.490;8.736;2022-09-19T02:23:35;96720.89;;;11.43;70.19
72118;BME280;59992;47.490;8.736;2022-09-19T02:26:25;96723.38;;;11.43;69.56
72118;BME280;59992;47.490;8.736;2022-09-19T02:29:15;96723.08;;;11.42;68.74
72118;BME280;59992;47.490;8.736;2022-09-19T02:32:07;96727.91;;;11.41;69.37
72118;BME280;59992;47.490;8.736;2022-09-19T02:34:57;96728.36;;;11.40;69.13
72118;BME280;59992;47.490;8.736;2022-09-19T02:37:49;96729.27;;;11.42;69.64
72118;BME280;59992;47.490;8.736;2022-09-19T02:40:48;96732.58;;;11.38;69.62
72118;BME280;59992;47.490;8.736;2022-09-19T02:43:44;96734.83;;;11.37;69.88
72118;BME280;59992;47.490;8.736;2022-09-19T02:46:39;96737.60;;;11.34;68.43
72118;BME280;59992;47.490;8.736;2022-09-19T02:49:35;96730.54;;;11.33;68.33
72118;BME280;59992;47.490;8.736;2022-09-19T02:52:28;96739.34;;;11.34;69.43
72118;BME280;59992;47.490;8.736;2022-09-19T02:55:19;96739.64;;;11.34;69.45
72118;BME280;59992;47.490;8.736;2022-09-19T02:58:13;96737.80;;;11.32;68.86
72118;BME280;59992;47.490;8.736;2022-09-19T03:01:06;96742.34;;;11.32;68.79
72118;BME280;59992;47.490;8.736;2022-09-19T03:03:59;96746.09;;;11.34;68.76
72118;BME280;59992;47.490;8.736;2022-09-19T03:07:04;96749.64;;;11.39;68.70
72118;BME280;59992;47.490;8.736;2022-09-19T03:10:04;96748.63;;;11.43;68.93
72118;BME280;59992;47.490;8.736;2022-09-19T03:12:55;96752.52;;;11.46;69.23
72118;BME280;59992;47.490;8.736;2022-09-19T03:15:48;96752.70;;;11.48;69.23
72118;BME280;59992;47.490;8.736;2022-09-19T03:18:39;96755.67;;;11.48;70.11
72118;BME280;59992;47.490;8.736;2022-09-19T03:21:30;96760.96;;;11.46;69.79
72118;BME280;59992;47.490;8.736;2022-09-19T03:24:18;96762.29;;;11.44;68.07
72118;BME280;59992;47.490;8.736;2022-09-19T03:27:07;96761.77;;;11.45;68.04
72118;BME280;59992;47.490;8.736;2022-09-19T03:29:56;96766.23;;;11.44;68.56
72118;BME280;59992;47.490;8.736;2022-09-19T03:32:45;96765.98;;;11.41;71.00
72118;BME280;59992;47.490;8.736;2022-09-19T03:35:33;96768.50;;;11.37;69.94
72118;BME280;59992;47.490;8.736;2022-09-19T03:38:22;96767.55;;;11.39;68.64
72118;BME280;59992;47.490;8.736;2022-09-19T03:41:10;96776.62;;;11.43;68.94
72118;BME280;59992;47.490;8.736;2022-09-19T03:43:59;96779.13;;;11.43;67.72
72118;BME280;59992;47.490;8.736;2022-09-19T03:46:49;96782.38;;;11.43;67.42
72118;BME280;59992;47.490;8.736;2022-09-19T03:49:38;96785.86;;;11.42;67.23
72118;BME280;59992;47.490;8.736;2022-09-19T03:52:27;96787.40;;;11.43;67.66
72118;BME280;59992;47.490;8.736;2022-09-19T03:55:15;96789.22;;;11.44;67.83
72118;BME280;59992;47.490;8.736;2022-09-19T03:58:03;96794.21;;;11.43;68.97
72118;BME280;59992;47.490;8.736;2022-09-19T04:00:52;96795.65;;;11.42;68.46
72118;BME280;59992;47.490;8.736;2022-09-19T04:03:41;96796.17;;;11.42;68.52
72118;BME280;59992;47.490;8.736;2022-09-19T04:06:29;96797.54;;;11.42;68.47
72118;BME280;59992;47.490;8.736;2022-09-19T04:09:28;96795.73;;;11.43;67.97
72118;BME280;59992;47.490;8.736;2022-09-19T04:12:20;96797.80;;;11.39;67.65
72118;BME280;59992;47.490;8.736;2022-09-19T04:15:11;96793.77;;;11.38;67.58
72118;BME280;59992;47.490;8.736;2022-09-19T04:18:02;96797.16;;;11.37;67.69
72118;BME280;59992;47.490;8.736;2022-09-19T04:20:53;96799.70;;;11.33;67.86
72118;BME280;59992;47.490;8.736;2022-09-19T04:23:43;96806.16;;;11.30;66.77
72118;BME280;59992;47.490;8.736;2022-09-19T04:26:34;96815.02;;;11.28;67.40
72118;BME280;59992;47.490;8.736;2022-09-19T04:29:26;96816.66;;;11.27;68.24
72118;BME280;59992;47.490;8.736;2022-09-19T04:32:16;96817.34;;;11.22;69.67
72118;BME280;59992;47.490;8.736;2022-09-19T04:35:09;96818.37;;;11.20;71.07
72118;BME280;59992;47.490;8.736;2022-09-19T04:38:02;96817.11;;;11.17;71.29
72118;BME280;59992;47.490;8.736;2022-09-19T04:40:52;96819.40;;;11.12;72.91
72118;BME280;59992;47.490;8.736;2022-09-19T04:43:46;96821.09;;;11.09;72.27
72118;BME280;59992;47.490;8.736;2022-09-19T04:46:37;96822.73;;;11.08;71.19
72118;BME280;59992;47.490;8.736;2022-09-19T04:49:31;96822.57;;;11.01;70.22
72118;BME280;59992;47.490;8.736;2022-09-19T04:52:28;96825.52;;;11.01;70.13
72118;BME280;59992;47.490;8.736;2022-09-19T04:55:19;96829.84;;;10.97;69.94
72118;BME280;59992;47.490;8.736;2022-09-19T04:58:09;96832.52;;;10.94;69.45
72118;BME280;59992;47.490;8.736;2022-09-19T05:01:00;96838.98;;;10.94;69.87
72118;BME280;59992;47.490;8.736;2022-09-19T05:03:51;96836.69;;;10.93;71.07
72118;BME280;59992;47.490;8.736;2022-09-19T05:06:42;96838.89;;;10.93;71.36
72118;BME280;59992;47.490;8.736;2022-09-19T05:09:33;96842.95;;;10.86;72.38
72118;BME280;59992;47.490;8.736;2022-09-19T05:12:23;96841.86;;;10.84;74.25
72118;BME280;59992;47.490;8.736;2022-09-19T05:15:14;96842.98;;;10.83;74.45
72118;BME280;59992;47.490;8.736;2022-09-19T05:18:05;96848.39;;;10.84;74.29
72118;BME280;59992;47.490;8.736;2022-09-19T05:20:56;96857.14;;;10.84;73.14
72118;BME280;59992;47.490;8.736;2022-09-19T05:23:46;96853.27;;;10.82;71.79
72118;BME280;59992;47.490;8.736;2022-09-19T05:26:37;96863.84;;;10.80;72.53
72118;BME280;59992;47.490;8.736;2022-09-19T05:29:30;96867.93;;;10.80;72.25
72118;BME280;59992;47.490;8.736;2022-09-19T05:32:28;96867.73;;;10.78;72.12
72118;BME280;59992;47.490;8.736;2022-09-19T05:35:19;96870.28;;;10.76;72.70
72118;BME280;59992;47.490;8.736;2022-09-19T05:38:09;96875.77;;;10.78;72.83
72118;BME280;59992;47.490;8.736;2022-09-19T05:41:02;96879.04;;;10.78;74.89
72118;BME280;59992;47.490;8.736;2022-09-19T05:43:53;96879.14;;;10.80;74.80
72118;BME280;59992;47.490;8.736;2022-09-19T05:46:44;96881.98;;;10.83;73.98
72118;BME280;59992;47.490;8.736;2022-09-19T05:49:35;96885.45;;;10.86;74.17
72118;BME280;59992;47.490;8.736;2022-09-19T05:52:25;96889.39;;;10.90;74.10
72118;BME280;59992;47.490;8.736;2022-09-19T05:55:34;96894.87;;;10.88;74.91
72118;BME280;59992;47.490;8.736;2022-09-19T05:58:25;96892.02;;;10.85;75.74
72118;BME280;59992;47.490;8.736;2022-09-19T06:01:17;96897.55;;;10.85;76.70
72118;BME280;59992;47.490;8.736;2022-09-19T06:04:08;96903.95;;;10.86;76.17
72118;BME280;59992;47.490;8.736;2022-09-19T06:06:59;96907.45;;;10.87;76.16
72118;BME280;59992;47.490;8.736;2022-09-19T06:09:49;96905.42;;;10.88;75.47
72118;BME280;59992;47.490;8.736;2022-09-19T06:12:45;96912.66;;;10.91;76.22
72118;BME280;59992;47.490;8.736;2022-09-19T06:15:35;96914.00;;;10.98;76.48
72118;BME280;59992;47.490;8.736;2022-09-19T06:18:26;96913.11;;;11.03;75.16
72118;BME280;59992;47.490;8.736;2022-09-19T06:21:18;96916.45;;;11.09;74.42
72118;BME280;59992;47.490;8.736;2022-09-19T06:24:09;96918.56;;;11.13;74.92
72118;BME280;59992;47.490;8.736;2022-09-19T06:27:00;96914.65;;;11.19;75.74
72118;BME280;59992;47.490;8.736;2022-09-19T06:29:50;96914.40;;;11.27;74.41
72118;BME280;59992;47.490;8.736;2022-09-19T06:32:41;96917.77;;;11.35;73.17
72118;BME280;59992;47.490;8.736;2022-09-19T06:35:31;96919.68;;;11.45;72.57
72118;BME280;59992;47.490;8.736;2022-09-19T06:38:22;96921.86;;;11.63;71.93
72118;BME280;59992;47.490;8.736;2022-09-19T06:41:13;96924.77;;;11.85;70.50
72118;BME280;59992;47.490;8.736;2022-09-19T06:44:04;96927.89;;;12.08;68.76
72118;BME280;59992;47.490;8.736;2022-09-19T06:46:55;96931.73;;;12.43;68.63
72118;BME280;59992;47.490;8.736;2022-09-19T06:49:47;96936.39;;;13.17;68.56
72118;BME280;59992;47.490;8.736;2022-09-19T06:52:38;96935.95;;;13.90;65.61
72118;BME280;59992;47.490;8.736;2022-09-19T06:55:35;96936.20;;;14.36;61.51
72118;BME280;59992;47.490;8.736;2022-09-19T06:58:26;96936.90;;;14.84;59.95
72118;BME280;59992;47.490;8.736;2022-09-19T07:01:17;96943.77;;;15.44;57.32
72118;BME280;59992;47.490;8.736;2022-09-19T07:04:07;96947.20;;;16.15;56.60
72118;BME280;59992;47.490;8.736;2022-09-19T07:06:58;96949.60;;;16.76;53.43
72118;BME280;59992;47.490;8.736;2022-09-19T07:09:50;96953.40;;;16.68;51.80
72118;BME280;59992;47.490;8.736;2022-09-19T07:12:40;96955.66;;;16.57;52.57
72118;BME280;59992;47.490;8.736;2022-09-19T07:15:32;96963.25;;;16.47;52.79
72118;BME280;59992;47.490;8.736;2022-09-19T07:18:23;96966.84;;;16.20;52.22
72118;BME280;59992;47.490;8.736;2022-09-19T07:21:15;96968.09;;;16.08;54.21
72118;BME280;59992;47.490;8.736;2022-09-19T07:24:06;96973.48;;;15.82;53.79
72118;BME280;59992;47.490;8.736;2022-09-19T07:26:57;96972.50;;;15.68;52.74
72118;BME280;59992;47.490;8.736;2022-09-19T07:29:47;96982.11;;;15.74;52.23
72118;BME280;59992;47.490;8.736;2022-09-19T07:32:38;96982.34;;;15.66;53.49
72118;BME280;59992;47.490;8.736;2022-09-19T07:35:29;96986.70;;;15.85;52.92
72118;BME280;59992;47.490;8.736;2022-09-19T07:38:22;96983.95;;;16.26;51.00
72118;BME280;59992;47.490;8.736;2022-09-19T09:33:08;97026.09;;;16.07;49.22
72118;BME280;59992;47.490;8.736;2022-09-19T09:36:05;97023.13;;;16.38;45.71
72118;BME280;59992;47.490;8.736;2022-09-19T09:39:05;97022.71;;;16.60;43.72
72118;BME280;59992;47.490;8.736;2022-09-19T09:42:02;97020.81;;;16.78;44.23
72118;BME280;59992;47.490;8.736;2022-09-19T09:44:59;97022.00;;;16.88;45.39
72118;BME280;59992;47.490;8.736;2022-09-19T09:47:59;97018.74;;;16.98;43.90
72118;BME280;59992;47.490;8.736;2022-09-19T09:51:12;97020.65;;;16.97;44.17
72118;BME280;59992;47.490;8.736;2022-09-19T09:54:19;97023.67;;;16.90;44.58
72118;BME280;59992;47.490;8.736;2022-09-19T09:57:36;97022.70;;;16.82;42.57
72118;BME280;59992;47.490;8.736;2022-09-19T10:00:30;97028.65;;;16.69;42.72
72118;BME280;59992;47.490;8.736;2022-09-19T10:03:38;97032.25;;;16.30;42.03
72118;BME280;59992;47.490;8.736;2022-09-19T10:06:43;97026.02;;;15.88;44.28
72118;BME280;59992;47.490;8.736;2022-09-19T10:09:37;97025.70;;;15.52;45.51
72118;BME280;59992;47.490;8.736;2022-09-19T10:12:33;97026.85;;;15.21;44.74
72118;BME280;59992;47.490;8.736;2022-09-19T10:15:27;97024.13;;;15.03;45.51
72118;BME280;59992;47.490;8.736;2022-09-19T10:18:23;97022.48;;;14.90;47.41
72118;BME280;59992;47.490;8.736;2022-09-19T10:21:15;97018.56;;;14.78;48.44
72118;BME280;59992;47.490;8.736;2022-09-19T10:24:43;97011.89;;;14.71;46.65
72118;BME280;59992;47.490;8.736;2022-09-19T10:27:39;97010.25;;;14.79;46.70
72118;BME280;59992;47.490;8.736;2022-09-19T10:30:39;97006.75;;;14.83;45.53
72118;BME280;59992;47.490;8.736;2022-09-19T10:33:45;97011.06;;;14.95;44.90
72118;BME280;59992;47.490;8.736;2022-09-19T10:36:45;97004.61;;;15.02;45.68
72118;BME280;59992;47.490;8.736;2022-09-19T10:39:42;97007.28;;;15.07;46.43
72118;BME280;59992;47.490;8.736;2022-09-19T10:42:37;97004.48;;;15.17;47.17
72118;BME280;59992;47.490;8.736;2022-09-19T10:45:32;97005.21;;;15.35;46.93
72118;BME280;59992;47.490;8.736;2022-09-19T10:48:28;97003.27;;;15.51;45.23
72118;BME280;59992;47.490;8.736;2022-09-19T10:51:21;96999.37;;;15.57;43.20
72118;BME280;59992;47.490;8.736;2022-09-19T10:54:24;97005.19;;;15.70;43.46
72118;BME280;59992;47.490;8.736;2022-09-19T10:57:38;97005.71;;;15.73;43.43
72118;BME280;59992;47.490;8.736;2022-09-19T11:00:45;96999.15;;;15.71;41.95
72118;BME280;59992;47.490;8.736;2022-09-19T11:03:39;97000.98;;;15.69;42.64
72118;BME280;59992;47.490;8.736;2022-09-19T11:06:31;96997.70;;;15.68;43.55
72118;BME280;59992;47.490;8.736;2022-09-19T11:09:28;96998.77;;;15.64;43.53
72118;BME280;59992;47.490;8.736;2022-09-19T11:12:22;96995.47;;;15.58;44.22
72118;BME280;59992;47.490;8.736;2022-09-19T11:15:14;97000.05;;;15.62;43.47
72118;BME280;59992;47.490;8.736;2022-09-19T11:18:11;97000.14;;;15.68;44.30
72118;BME280;59992;47.490;8.736;2022-09-19T11:21:13;96998.85;;;15.74;43.72
72118;BME280;59992;47.490;8.736;2022-09-19T11:24:28;96996.77;;;15.77;44.16
72118;BME280;59992;47.490;8.736;2022-09-19T11:27:38;96997.70;;;15.65;44.82
72118;BME280;59992;47.490;8.736;2022-09-19T11:30:34;96996.09;;;15.57;44.01
72118;BME280;59992;47.490;8.736;2022-09-19T11:33:45;96999.23;;;15.56;44.50
72118;BME280;59992;47.490;8.736;2022-09-19T11:36:53;97001.73;;;15.56;44.22
72118;BME280;59992;47.490;8.736;2022-09-19T11:40:02;96999.52;;;15.58;44.54
72118;BME280;59992;47.490;8.736;2022-09-19T11:43:03;97003.89;;;15.68;44.64
72118;BME280;59992;47.490;8.736;2022-09-19T11:46:08;97007.01;;;15.64;44.46
72118;BME280;59992;47.490;8.736;2022-09-19T11:49:28;97000.90;;;15.54;43.08
72118;BME280;59992;47.490;8.736;2022-09-19T11:52:31;97000.81;;;15.51;43.33
72118;BME280;59992;47.490;8.736;2022-09-19T11:55:34;96997.91;;;15.46;42.97
72118;BME280;59992;47.490;8.736;2022-09-19T11:58:32;96997.41;;;15.37;42.88
72118;BME280;59992;47.490;8.736;2022-09-19T12:01:35;96994.82;;;15.31;42.88
72118;BME280;59992;47.490;8.736;2022-09-19T12:04:38;96987.17;;;15.21;43.35
72118;BME280;59992;47.490;8.736;2022-09-19T12:07:37;96986.79;;;15.25;43.85
72118;BME280;59992;47.490;8.736;2022-09-19T12:10:35;96985.58;;;15.32;44.51
72118;BME280;59992;47.490;8.736;2022-09-19T12:13:33;96983.95;;;15.43;45.04
72118;BME280;59992;47.490;8.736;2022-09-19T12:16:36;96980.90;;;15.51;43.40
72118;BME280;59992;47.490;8.736;2022-09-19T12:19:34;96979.52;;;15.54;42.70
72118;BME280;59992;47.490;8.736;2022-09-19T12:22:29;96979.14;;;15.64;41.76
72118;BME280;59992;47.490;8.736;2022-09-19T12:25:22;96975.41;;;15.68;42.06
72118;BME280;59992;47.490;8.736;2022-09-19T12:28:15;96976.54;;;15.73;42.98
72118;BME280;59992;47.490;8.736;2022-09-19T12:31:10;96970.96;;;15.74;42.65
72118;BME280;59992;47.490;8.736;2022-09-19T12:34:11;96964.54;;;15.76;41.70
72118;BME280;59992;47.490;8.736;2022-09-19T12:37:14;96961.17;;;15.79;42.02
72118;BME280;59992;47.490;8.736;2022-09-19T12:40:19;96957.90;;;15.82;42.57
72118;BME280;59992;47.490;8.736;2022-09-19T12:43:27;96961.48;;;15.84;41.99
72118;BME280;59992;47.490;8.736;2022-09-19T12:46:38;96958.58;;;15.85;42.20
72118;BME280;59992;47.490;8.736;2022-09-19T12:49:35;96955.69;;;15.78;42.13
72118;BME280;59992;47.490;8.736;2022-09-19T12:52:34;96952.41;;;15.68;42.70
72118;BME280;59992;47.490;8.736;2022-09-19T12:55:31;96951.73;;;15.63;42.77
72118;BME280;59992;47.490;8.736;2022-09-19T12:58:31;96950.66;;;15.60;42.60
72118;BME280;59992;47.490;8.736;2022-09-19T13:01:33;96946.00;;;15.52;43.02
72118;BME280;59992;47.490;8.736;2022-09-19T13:04:37;96942.23;;;15.39;42.27
72118;BME280;59992;47.490;8.736;2022-09-19T13:07:43;96942.61;;;15.29;43.00
72118;BME280;59992;47.490;8.736;2022-09-19T13:10:42;96934.98;;;15.21;42.65
72118;BME280;59992;47.490;8.736;2022-09-19T13:13:38;96933.66;;;15.15;44.65
72118;BME280;59992;47.490;8.736;2022-09-19T13:16:43;96932.67;;;15.10;44.52
72118;BME280;59992;47.490;8.736;2022-09-19T13:19:51;96926.88;;;15.16;44.15
72118;BME280;59992;47.490;8.736;2022-09-19T13:23:02;96923.68;;;15.16;44.49
72118;BME280;59992;47.490;8.736;2022-09-19T13:26:20;96924.81;;;15.04;44.94
72118;BME280;59992;47.490;8.736;2022-09-19T13:29:45;96924.95;;;14.95;45.27
72118;BME280;59992;47.490;8.736;2022-09-19T13:32:54;96925.01;;;14.86;45.81
72118;BME280;59992;47.490;8.736;2022-09-19T13:35:51;96922.26;;;14.85;50.36
72118;BME280;59992;47.490;8.736;2022-09-19T13:38:44;96922.96;;;14.94;47.22
72118;BME280;59992;47.490;8.736;2022-09-19T13:41:39;96922.38;;;15.04;48.04
72118;BME280;59992;47.490;8.736;2022-09-19T13:44:35;96925.52;;;15.17;47.76
72118;BME280;59992;47.490;8.736;2022-09-19T13:47:32;96926.97;;;15.28;49.38
72118;BME280;59992;47.490;8.736;2022-09-19T13:50:31;96923.45;;;15.35;44.33
72118;BME280;59992;47.490;8.736;2022-09-19T13:53:31;96915.45;;;15.34;46.01
72118;BME280;59992;47.490;8.736;2022-09-19T13:56:28;96922.86;;;15.41;48.61
72118;BME280;59992;47.490;8.736;2022-09-19T13:59:26;96919.75;;;15.49;45.05
72118;BME280;59992;47.490;8.736;2022-09-19T14:02:28;96917.61;;;15.57;45.22
72118;BME280;59992;47.490;8.736;2022-09-19T14:05:21;96912.17;;;15.64;44.46
72118;BME280;59992;47.490;8.736;2022-09-19T14:08:28;96910.49;;;15.62;43.59
72118;BME280;59992;47.490;8.736;2022-09-19T14:11:30;96913.31;;;15.66;43.20
72118;BME280;59992;47.490;8.736;2022-09-19T14:14:53;96911.09;;;15.69;43.78
72118;BME280;59992;47.490;8.736;2022-09-19T14:18:02;96913.68;;;15.74;42.90
72118;BME280;59992;47.490;8.736;2022-09-19T14:21:11;96910.63;;;15.75;39.88
72118;BME280;59992;47.490;8.736;2022-09-19T14:24:05;96912.07;;;15.80;41.58
72118;BME280;59992;47.490;8.736;2022-09-19T14:27:08;96906.03;;;15.83;39.26
72118;BME280;59992;47.490;8.736;2022-09-19T14:30:12;96907.94;;;15.90;39.51
72118;BME280;59992;47.490;8.736;2022-09-19T14:37:04;96905.86;;;15.94;41.21
72118;BME280;59992;47.490;8.736;2022-09-19T14:40:22;96903.87;;;15.94;39.60
72118;BME280;59992;47.490;8.736;2022-09-19T14:46:43;96900.94;;;16.04;40.49
72118;BME280;59992;47.490;8.736;2022-09-19T14:49:44;96899.86;;;16.07;40.22
72118;BME280;59992;47.490;8.736;2022-09-19T14:52:40;96895.64;;;16.09;40.63
72118;BME280;59992;47.490;8.736;2022-09-19T14:55:41;96893.35;;;16.12;43.09
72118;BME280;59992;47.490;8.736;2022-09-19T14:58:34;96898.20;;;16.00;48.01
72118;BME280;59992;47.490;8.736;2022-09-19T15:01:27;96898.05;;;15.93;43.69
72118;BME280;59992;47.490;8.736;2022-09-19T15:04:21;96896.61;;;15.93;42.09
72118;BME280;59992;47.490;8.736;2022-09-19T15:07:13;96898.36;;;15.94;41.13
72118;BME280;59992;47.490;8.736;2022-09-19T15:10:25;96890.71;;;15.96;41.94
72118;BME280;59992;47.490;8.736;2022-09-19T15:13:21;96888.88;;;15.98;41.90
72118;BME280;59992;47.490;8.736;2022-09-19T15:16:14;96885.44;;;15.97;47.13
72118;BME280;59992;47.490;8.736;2022-09-19T15:19:05;96881.56;;;15.92;45.95
72118;BME280;59992;47.490;8.736;2022-09-19T15:21:55;96884.11;;;15.79;47.54
72118;BME280;59992;47.490;8.736;2022-09-19T15:24:48;96888.58;;;15.71;44.58
72118;BME280;59992;47.490;8.736;2022-09-19T15:27:49;96885.05;;;15.70;43.33
72118;BME280;59992;47.490;8.736;2022-09-19T15:30:50;96882.60;;;15.71;41.18
72118;BME280;59992;47.490;8.736;2022-09-19T15:33:42;96884.96;;;15.72;42.75
72118;BME280;59992;47.490;8.736;2022-09-19T15:36:36;96891.91;;;15.74;43.40
72118;BME280;59992;47.490;8.736;2022-09-19T15:39:27;96886.34;;;15.76;41.93
72118;BME280;59992;47.490;8.736;2022-09-19T15:42:18;96889.39;;;15.77;44.09
72118;BME280;59992;47.490;8.736;2022-09-19T15:45:37;96895.05;;;15.75;42.37
72118;BME280;59992;47.490;8.736;2022-09-19T15:48:32;96895.13;;;15.69;47.58
72118;BME280;59992;47.490;8.736;2022-09-19T15:51:28;96900.80;;;15.42;51.05
72118;BME280;59992;47.490;8.736;2022-09-19T15:54:22;96900.56;;;15.19;46.17
72118;BME280;59992;47.490;8.736;2022-09-19T15:57:21;96901.25;;;15.17;47.77
72118;BME280;59992;47.490;8.736;2022-09-19T16:00:23;96900.85;;;15.00;50.72
72118;BME280;59992;47.490;8.736;2022-09-19T16:03:18;96906.63;;;14.95;48.42
72118;BME280;59992;47.490;8.736;2022-09-19T16:06:24;96904.73;;;14.94;46.24
72118;BME280;59992;47.490;8.736;2022-09-19T16:09:36;96904.20;;;14.90;54.23
72118;BME280;59992;47.490;8.736;2022-09-19T16:12:38;96902.89;;;14.57;55.27
72118;BME280;59992;47.490;8.736;2022-09-19T16:15:33;96902.99;;;14.37;52.52
72118;BME280;59992;47.490;8.736;2022-09-19T16:18:24;96903.13;;;14.30;54.08
72118;BME280;59992;47.490;8.736;2022-09-19T16:21:18;96902.45;;;14.19;56.49
72118;BME280;59992;47.490;8.736;2022-09-19T16:24:15;96902.57;;;13.97;57.47
72118;BME280;59992;47.490;8.736;2022-09-19T16:27:07;96903.44;;;13.76;57.28
72118;BME280;59992;47.490;8.736;2022-09-19T16:29:59;96901.71;;;13.47;58.29
72118;BME280;59992;47.490;8.736;2022-09-19T16:32:51;96907.17;;;13.35;59.96
72118;BME280;59992;47.490;8.736;2022-09-19T16:35:42;96906.69;;;13.21;61.36
72118;BME280;59992;47.490;8.736;2022-09-19T16:38:33;96908.79;;;13.08;62.02
72118;BME280;59992;47.490;8.736;2022-09-19T16:41:25;96911.48;;;12.99;62.35
72118;BME280;59992;47.490;8.736;2022-09-19T16:44:35;96908.35;;;12.88;62.41
72118;BME280;59992;47.490;8.736;2022-09-19T16:47:26;96908.23;;;12.75;63.50
72118;BME280;59992;47.490;8.736;2022-09-19T16:50:19;96913.76;;;12.65;64.47
72118;BME280;59992;47.490;8.736;2022-09-19T16:53:14;96912.81;;;12.50;65.77
72118;BME280;59992;47.490;8.736;2022-09-19T16:56:05;96912.55;;;12.34;65.97
72118;BME280;59992;47.490;8.736;2022-09-19T16:58:56;96914.61;;;12.21;66.63
72118;BME280;59992;47.490;8.736;2022-09-19T17:01:47;96916.53;;;12.12;66.87
72118;BME280;59992;47.490;8.736;2022-09-19T17:04:37;96919.20;;;12.00;67.07
72118;BME280;59992;47.490;8.736;2022-09-19T17:07:28;96920.90;;;11.85;67.75
72118;BME280;59992;47.490;8.736;2022-09-19T17:10:21;96927.00;;;11.71;70.49
72118;BME280;59992;47.490;8.736;2022-09-19T17:13:13;96932.95;;;11.60;70.37
72118;BME280;59992;47.490;8.736;2022-09-19T17:16:05;96937.14;;;11.51;70.10
72118;BME280;59992;47.490;8.736;2022-09-19T17:18:58;96940.08;;;11.45;67.46
72118;BME280;59992;47.490;8.736;2022-09-19T17:21:49;96941.85;;;11.37;67.23
72118;BME280;59992;47.490;8.736;2022-09-19T17:24:39;96943.33;;;11.25;70.29
72118;BME280;59992;47.490;8.736;2022-09-19T17:27:30;96943.48;;;11.16;69.55
72118;BME280;59992;47.490;8.736;2022-09-19T17:30:21;96948.56;;;11.08;70.25